Time;durP1;ratioP1;P1;durP2;ratioP2;P2;SDS_P1;SDS_P2;PMS_P1;PMS_P2;Temp;Humidity;BMP_temperature;BMP_pressure;BME280_temperature;BME280_humidity;BME280_pressure;Samples;Min_cycle;Max_cycle;Signal;HPM_P1;HPM_P2
2022/12/29 00:01:41;;;;;;;2.47;2.20;;;7.50;73.40;;;7.00;64.19;97566.28;5094835;28;20537;-79
2022/12/29 00:04:14;;;;;;;2.93;2.30;;;7.50;73.20;;;7.08;63.94;97574.97;5075785;28;20445;-81
2022/12/29 00:06:42;;;;;;;2.70;1.93;;;7.50;73.00;;;7.07;63.91;97569.81;5068485;28;20451;-79
2022/12/29 00:09:11;;;;;;;2.70;1.97;;;7.50;73.00;;;7.21;63.32;97573.34;5076780;28;20440;-80
2022/12/29 00:11:38;;;;;;;2.67;2.00;;;7.50;73.00;;;7.09;63.81;97555.16;5092893;28;20518;-75
2022/12/29 00:16:51;;;;;;;2.00;1.80;;;7.50;73.00;;;7.16;63.71;97562.38;5076572;28;20440;-82
2022/12/29 00:36:17;;;;;;;1.73;1.60;;;7.60;72.60;;;7.37;63.31;97542.56;5034243;28;20461;-80
2022/12/29 00:44:20;;;;;;;2.77;2.17;;;7.70;72.80;;;7.35;63.36;97541.94;5066411;28;20472;-76
2022/12/29 00:46:47;;;;;;;2.43;1.83;;;7.70;72.70;;;7.47;63.14;97534.06;5086641;28;20442;-79
2022/12/29 00:49:31;;;;;;;2.80;1.80;;;7.70;72.60;;;7.42;63.30;97536.56;5091122;28;20533;-80
2022/12/29 00:52:02;;;;;;;4.60;2.20;;;7.70;72.60;;;7.44;63.38;97537.19;5091920;28;20578;-79
2022/12/29 00:54:32;;;;;;;3.40;2.20;;;7.70;72.60;;;6.95;63.11;97459.47;5089380;28;20456;-80
2022/12/29 00:56:59;;;;;;;3.23;1.80;;;7.80;72.60;;;7.50;62.98;97529.13;5093175;28;20452;-79
2022/12/29 00:59:27;;;;;;;2.03;1.83;;;7.80;72.50;;;7.50;63.10;97528.28;5074723;28;21007;-79
2022/12/29 01:01:55;;;;;;;2.10;1.90;;;7.80;72.50;;;7.42;63.29;97531.19;5092966;28;20596;-80
2022/12/29 01:04:25;;;;;;;3.03;2.60;;;7.80;72.40;;;7.51;63.18;97532.63;5090901;28;20535;-81
2022/12/29 01:06:53;;;;;;;2.50;1.90;;;7.80;72.30;;;7.52;63.11;97526.22;5092823;28;20519;-79
2022/12/29 01:12:08;;;;;;;4.00;2.93;;;7.90;72.40;;;7.45;63.44;97530.75;5087325;28;20456;-80
2022/12/29 01:14:36;;;;;;;2.20;2.00;;;7.90;72.40;;;7.61;62.31;97529.53;5092151;28;20453;-77
2022/12/29 01:17:04;;;;;;;2.20;1.83;;;7.90;72.50;;;7.67;62.54;97525.19;5065984;28;20432;-80
2022/12/29 01:19:31;;;;;;;1.77;1.67;;;7.90;72.40;;;7.50;63.54;97528.28;5088233;28;20500;-79
2022/12/29 01:21:59;;;;;;;2.67;2.17;;;7.90;72.40;;;7.65;62.79;97522.69;5092819;28;20477;-79
2022/12/29 01:24:27;;;;;;;2.60;1.93;;;7.90;72.40;;;7.65;63.37;97511.94;5090460;28;20432;-75
2022/12/29 01:26:55;;;;;;;2.13;1.83;;;8.00;72.50;;;7.68;62.81;97502.63;5074363;28;21019;-79
2022/12/29 01:29:23;;;;;;;1.63;1.53;;;8.00;72.30;;;7.83;62.52;97510.44;5092683;28;20450;-77
2022/12/29 01:31:50;;;;;;;2.03;1.73;;;8.00;72.30;;;7.72;62.85;97501.97;5073616;28;21075;-81
2022/12/29 01:34:17;;;;;;;4.43;1.93;;;8.10;72.30;;;7.78;63.03;97498.47;5070440;28;20459;-78
2022/12/29 01:36:45;;;;;;;2.33;1.90;;;8.10;72.30;;;7.69;62.62;97502.41;5092212;28;20444;-76
2022/12/29 01:39:12;;;;;;;2.60;2.03;;;8.00;72.20;;;7.87;62.29;97496.38;5091705;28;20448;-80
2022/12/29 01:41:40;;;;;;;2.40;2.03;;;8.10;72.40;;;7.77;62.60;97496.81;5074189;28;20499;-76
2022/12/29 01:44:50;;;;;;;4.40;2.00;;;8.10;72.10;;;7.86;62.89;97494.72;5073367;28;20943;-80
2022/12/29 01:47:26;;;;;;;2.57;1.93;;;8.10;72.00;;;7.95;62.24;97498.00;5090333;28;20444;-78
2022/12/29 01:49:57;;;;;;;2.10;1.90;;;8.20;72.00;;;8.03;62.04;97491.56;5089509;28;20446;-79
2022/12/29 01:52:28;;;;;;;2.43;1.87;;;8.20;72.00;;;7.78;62.02;97476.13;5091792;28;20514;-82
2022/12/29 01:54:57;;;;;;;2.23;1.87;;;8.20;71.90;;;7.92;62.44;97483.13;5072930;28;20514;-80
2022/12/29 01:57:31;;;;;;;3.30;2.00;;;8.20;72.00;;;7.81;63.16;97491.84;5073552;28;20776;-79
2022/12/29 02:00:04;;;;;;;1.93;1.70;;;8.20;72.00;;;7.96;62.76;97488.06;5073257;28;20480;-79
2022/12/29 02:02:32;;;;;;;2.57;2.37;;;8.20;72.10;;;7.86;62.88;97475.91;5069254;28;20887;-79
2022/12/29 02:05:03;;;;;;;3.57;2.10;;;8.20;72.00;;;7.85;62.41;97474.25;5090034;28;20476;-79
2022/12/29 02:07:31;;;;;;;2.40;1.77;;;8.20;72.00;;;7.91;62.80;97475.28;5091912;28;20504;-78
2022/12/29 02:10:01;;;;;;;2.90;2.20;;;8.20;72.00;;;7.79;63.14;97462.47;5088503;28;20437;-77
2022/12/29 02:12:29;;;;;;;3.17;2.23;;;8.20;71.80;;;7.98;62.83;97464.50;5088711;28;20457;-79
2022/12/29 02:15:01;;;;;;;3.57;2.20;;;8.30;71.90;;;7.89;62.62;97462.03;5090967;28;20452;-79
2022/12/29 02:17:46;;;;;;;2.93;1.90;;;8.20;72.20;;;7.94;62.69;97467.59;5089947;28;20485;-78
2022/12/29 02:21:09;;;;;;;2.53;2.07;;;8.20;71.90;;;8.06;62.17;97464.25;5089258;28;20465;-78
2022/12/29 02:24:27;;;;;;;2.10;1.90;;;8.30;71.80;;;8.05;62.39;97467.97;5056093;28;20821;-75
2022/12/29 02:27:47;;;;;;;2.00;1.80;;;8.30;71.80;;;8.00;62.36;97465.09;5089784;28;20445;-78
2022/12/29 02:30:41;;;;;;;2.70;2.20;;;8.30;71.90;;;8.03;62.63;97457.41;5068844;28;20509;-80
2022/12/29 02:33:22;;;;;;;2.33;2.00;;;8.30;71.80;;;7.98;62.62;97461.81;5089655;28;20497;-80
2022/12/29 02:35:59;;;;;;;2.53;2.07;;;8.30;71.80;;;8.03;62.37;97464.66;5090067;28;21011;-78
2022/12/29 02:38:42;;;;;;;3.50;1.60;;;8.30;72.00;;;8.00;62.96;97467.78;5091157;28;20444;-76
2022/12/29 02:41:16;;;;;;;5.23;2.40;;;8.30;71.80;;;7.98;62.83;97465.31;5071744;28;20457;-80
2022/12/29 02:43:52;;;;;;;2.13;1.80;;;8.30;72.00;;;8.00;62.84;97463.22;5090353;28;20491;-79
2022/12/29 02:46:28;;;;;;;3.77;2.30;;;8.30;72.00;;;7.99;62.73;97463.44;5072500;28;20435;-76
2022/12/29 02:49:07;;;;;;;2.70;2.00;;;8.30;72.00;;;8.11;62.50;97459.03;5089173;28;20450;-80
2022/12/29 02:51:40;;;;;;;2.00;1.80;;;8.30;71.90;;;7.99;62.50;97463.44;5073087;28;20978;-79
2022/12/29 02:56:53;;;;;;;3.60;2.10;;;8.30;71.90;;;8.00;62.80;97462.41;5089878;28;20980;-79
2022/12/29 02:59:21;;;;;;;2.80;2.00;;;8.30;72.00;;;7.97;62.58;97452.09;5083299;28;20458;-78
2022/12/29 03:02:18;;;;;;;2.40;2.20;;;8.30;71.90;;;8.04;62.66;97456.41;5086332;28;20480;-78
2022/12/29 03:05:40;;;;;;;2.20;2.00;;;8.20;71.90;;;8.04;62.54;97458.25;5086099;28;20453;-78
2022/12/29 03:08:20;;;;;;;2.90;2.23;;;8.20;71.90;;;7.94;62.69;97454.13;5004644;28;20470;-80
2022/12/29 03:10:56;;;;;;;1.80;1.70;;;8.20;71.90;;;8.01;62.71;97447.91;5087665;28;20508;-80
2022/12/29 03:16:24;;;;;;;2.90;2.23;;;8.30;71.80;;;8.11;62.64;97442.88;5090359;28;20493;-78
2022/12/29 03:18:59;;;;;;;3.30;1.90;;;8.30;71.90;;;8.12;62.06;97446.41;5071442;28;20510;-79
2022/12/29 03:24:26;;;;;;;3.40;2.00;;;8.30;71.70;;;8.00;62.30;97430.94;5079192;28;20451;-79
2022/12/29 03:26:56;;;;;;;2.17;1.97;;;8.30;71.70;;;8.06;62.44;97440.03;5083121;28;20451;-77
2022/12/29 03:29:23;;;;;;;4.43;2.10;;;8.30;71.80;;;8.07;62.40;97436.28;5090627;28;20457;-77
2022/12/29 03:31:54;;;;;;;2.10;1.70;;;8.30;71.80;;;8.11;61.83;97432.13;5077277;28;20867;-80
2022/12/29 03:34:23;;;;;;;2.00;1.90;;;8.40;71.60;;;8.20;61.84;97438.94;5091628;28;20453;-82
2022/12/29 03:36:56;;;;;;;2.20;2.00;;;8.40;71.80;;;8.13;62.02;97440.00;5076331;28;20798;-79
2022/12/29 03:39:25;;;;;;;4.83;2.07;;;8.30;71.60;;;8.12;61.99;97431.13;5075508;28;20484;-79
2022/12/29 03:41:59;;;;;;;2.47;1.70;;;8.40;71.70;;;8.07;62.11;97438.97;5091343;28;20474;-79
2022/12/29 03:44:34;;;;;;;2.80;2.37;;;8.40;71.50;;;8.07;61.85;97430.91;5094162;28;20452;-79
2022/12/29 03:47:01;;;;;;;2.30;2.10;;;8.40;71.40;;;8.03;62.09;97429.69;5106491;28;20475;-76
2022/12/29 03:49:30;;;;;;;2.97;1.97;;;8.30;71.40;;;8.10;62.50;97427.78;5103252;28;20503;-77
2022/12/29 03:51:57;;;;;;;2.50;2.30;;;8.40;71.50;;;7.69;62.09;97353.72;5090998;28;20444;-78
2022/12/29 03:54:24;;;;;;;2.47;1.73;;;8.40;71.40;;;8.17;62.19;97422.38;5105588;28;20451;-78
2022/12/29 03:56:52;;;;;;;2.30;2.10;;;8.40;71.40;;;8.05;62.36;97430.31;5090585;28;20445;-78
2022/12/29 03:59:19;;;;;;;2.47;2.10;;;8.30;71.20;;;8.10;61.83;97430.47;5075920;28;20440;-79
2022/12/29 04:01:46;;;;;;;2.47;2.10;;;8.40;71.40;;;8.17;61.33;97420.53;5064220;28;20614;-80
2022/12/29 04:04:13;;;;;;;2.37;1.90;;;8.40;71.00;;;8.18;61.59;97430.25;5088959;28;20456;-79
2022/12/29 04:06:42;;;;;;;2.70;1.70;;;8.40;71.00;;;8.33;61.04;97431.84;5094159;28;20437;-77
2022/12/29 04:09:10;;;;;;;2.97;2.07;;;8.40;70.90;;;8.33;61.10;97426.44;5094073;28;20497;-79
2022/12/29 04:11:38;;;;;;;2.53;2.03;;;8.40;70.80;;;8.04;61.25;97377.53;5070150;28;20535;-79
2022/12/29 04:14:05;;;;;;;2.27;2.07;;;8.50;70.70;;;8.32;60.79;97438.25;5093171;28;20437;-79
2022/12/29 04:16:35;;;;;;;2.20;2.00;;;8.50;70.60;;;8.19;61.31;97425.72;5095189;28;20449;-79
2022/12/29 04:19:03;;;;;;;3.03;1.40;;;8.50;70.60;;;8.10;61.03;97427.78;5085621;28;20797;-80
2022/12/29 04:21:30;;;;;;;2.23;2.03;;;8.30;70.50;;;8.06;61.22;97427.41;5076832;28;20504;-80
2022/12/29 04:23:58;;;;;;;4.40;2.00;;;8.30;70.50;;;8.08;61.51;97432.56;5075707;28;20989;-79
2022/12/29 04:26:25;;;;;;;1.60;1.50;;;8.30;70.50;;;7.61;61.28;97363.66;5093518;28;20458;-76
2022/12/29 04:28:52;;;;;;;2.60;1.90;;;8.30;70.70;;;8.08;61.54;97436.09;5075664;28;20475;-79
2022/12/29 04:31:20;;;;;;;3.17;2.10;;;8.20;70.60;;;7.99;60.79;97440.06;5074675;28;20868;-78
2022/12/29 04:33:47;;;;;;;3.67;1.90;;;8.20;70.50;;;7.96;61.27;97434.25;5092188;28;20910;-78
2022/12/29 04:36:14;;;;;;;3.80;1.80;;;8.30;70.40;;;8.16;60.93;97432.34;5092766;28;20440;-79
2022/12/29 04:38:41;;;;;;;2.20;2.03;;;8.30;70.50;;;8.17;60.54;97430.44;5075929;28;20445;-79
2022/12/29 04:41:10;;;;;;;1.73;1.63;;;8.30;70.40;;;7.95;61.88;97428.06;5096238;28;20533;-79
2022/12/29 04:43:37;;;;;;;2.07;1.80;;;8.30;70.20;;;7.98;61.39;97432.22;5077458;28;20926;-80
2022/12/29 04:46:04;;;;;;;1.70;1.57;;;8.30;70.20;;;8.13;60.37;97423.84;5074783;28;20497;-76
2022/12/29 04:48:31;;;;;;;2.63;2.00;;;8.30;70.20;;;8.02;61.19;97417.28;5070572;28;20450;-79
2022/12/29 04:50:58;;;;;;;2.10;1.67;;;8.30;70.10;;;8.05;60.99;97419.53;5093093;28;20484;-79
2022/12/29 04:53:26;;;;;;;3.53;1.80;;;8.30;70.00;;;8.13;60.85;97418.47;5075023;28;20939;-82
2022/12/29 04:55:54;;;;;;;2.10;1.70;;;8.30;69.90;;;8.15;60.72;97429.84;5092716;28;20536;-80
2022/12/29 04:58:22;;;;;;;2.50;2.03;;;8.40;70.00;;;8.03;60.48;97417.06;5074936;28;21018;-79
2022/12/29 05:00:51;;;;;;;2.50;1.70;;;8.30;69.60;;;8.15;60.63;97421.78;5093197;28;20472;-79
2022/12/29 05:03:18;;;;;;;2.73;2.20;;;8.30;69.60;;;7.97;60.58;97407.16;5087811;28;20985;-79
2022/12/29 05:05:45;;;;;;;2.10;1.90;;;8.30;69.70;;;7.93;60.81;97417.50;5090083;28;20439;-80
2022/12/29 05:08:12;;;;;;;2.33;1.80;;;8.20;69.90;;;7.77;61.39;97415.31;5092932;28;20484;-80
2022/12/29 05:10:40;;;;;;;3.00;2.00;;;8.10;70.00;;;7.74;61.67;97416.56;5074151;28;20929;-78
2022/12/29 05:13:07;;;;;;;2.67;2.40;;;8.00;70.20;;;7.70;61.71;97409.13;5074587;28;20855;-79
2022/12/29 05:15:36;;;;;;;2.40;2.20;;;7.90;70.30;;;7.50;61.36;97358.91;5092912;28;20430;-80
2022/12/29 05:18:03;;;;;;;4.30;1.73;;;8.00;70.40;;;7.81;61.67;97421.94;5073024;28;20492;-78
2022/12/29 05:20:30;;;;;;;2.20;1.77;;;8.00;70.40;;;7.80;61.78;97439.91;5094136;28;20471;-80
2022/12/29 05:22:58;;;;;;;2.07;1.70;;;8.10;70.20;;;7.95;61.16;97438.84;5093981;28;20429;-77
2022/12/29 05:25:25;;;;;;;3.10;2.30;;;8.10;70.40;;;8.01;60.96;97426.41;5092009;28;20980;-79
2022/12/29 05:27:52;;;;;;;1.83;1.60;;;8.20;70.20;;;7.93;61.32;97425.59;5075813;28;20446;-78
2022/12/29 05:30:19;;;;;;;3.00;1.77;;;8.20;70.10;;;7.92;61.53;97433.88;5109525;28;20711;-79
2022/12/29 05:32:48;;;;;;;3.37;1.73;;;8.20;70.10;;;8.03;61.22;97430.50;5091177;28;20893;-80
2022/12/29 05:35:15;;;;;;;2.10;1.90;;;8.20;70.50;;;8.04;61.33;97431.34;5087385;28;20448;-80
2022/12/29 05:37:42;;;;;;;4.10;2.07;;;8.20;70.20;;;8.01;61.29;97421.81;5072722;28;20435;-81
2022/12/29 05:40:11;;;;;;;2.30;2.10;;;8.20;70.10;;;7.91;61.79;97410.72;5092732;28;20857;-79
2022/12/29 05:42:39;;;;;;;3.40;2.17;;;8.10;70.40;;;7.75;61.76;97410.16;5092108;28;20443;-79
2022/12/29 05:45:08;;;;;;;3.10;2.20;;;8.00;70.70;;;7.63;62.58;97403.78;5087396;28;20458;-81
2022/12/29 05:47:35;;;;;;;2.40;1.80;;;7.90;70.60;;;7.61;62.76;97411.22;5085142;28;20456;-79
2022/12/29 05:50:05;;;;;;;5.37;2.37;;;7.90;70.80;;;7.49;62.84;97409.19;5092181;28;20457;-79
2022/12/29 05:52:32;;;;;;;4.17;1.87;;;7.80;70.90;;;7.47;63.35;97410.41;5091776;28;20444;-79
2022/12/29 05:54:59;;;;;;;2.70;2.00;;;7.70;71.00;;;7.43;63.28;97422.63;5091161;28;20493;-80
2022/12/29 05:57:26;;;;;;;3.47;1.80;;;7.70;71.10;;;7.38;63.03;97417.88;5091666;28;21169;-79
2022/12/29 05:59:53;;;;;;;2.80;1.93;;;7.70;71.20;;;7.30;63.61;97427.00;5071999;28;20620;-79
2022/12/29 06:02:20;;;;;;;3.23;1.97;;;7.60;71.30;;;7.32;63.59;97430.28;5066533;28;21061;-79
2022/12/29 06:04:47;;;;;;;2.33;2.03;;;7.60;71.30;;;7.35;63.64;97437.97;5068228;28;20467;-79
2022/12/29 06:07:16;;;;;;;2.00;1.80;;;7.50;71.40;;;7.21;63.91;97437.13;5088877;28;20789;-78
2022/12/29 06:09:43;;;;;;;5.40;2.17;;;7.50;71.50;;;7.17;63.81;97427.00;5091645;28;20458;-78
2022/12/29 06:12:11;;;;;;;2.20;1.67;;;7.50;71.70;;;7.14;63.96;97422.06;5088033;28;20498;-78
2022/12/29 06:14:38;;;;;;;2.47;1.70;;;7.40;71.70;;;7.16;64.01;97414.59;5090882;28;20460;-79
2022/12/29 06:17:05;;;;;;;2.23;1.90;;;7.40;71.60;;;7.11;63.93;97417.91;5089264;28;20488;-78
2022/12/29 06:19:32;;;;;;;3.90;2.00;;;7.40;71.80;;;7.17;63.95;97422.47;5073471;28;20935;-79
2022/12/29 06:22:00;;;;;;;1.70;1.60;;;7.40;71.80;;;7.06;64.30;97421.25;5091665;28;20461;-78
2022/12/29 06:24:28;;;;;;;3.90;1.90;;;7.20;71.90;;;6.61;64.34;97352.03;5090547;28;20947;-80
2022/12/29 06:26:55;;;;;;;2.10;1.90;;;7.20;72.20;;;6.86;64.22;97415.03;5092400;28;20460;-79
2022/12/29 06:29:22;;;;;;;2.63;2.43;;;7.10;72.40;;;6.94;64.53;97428.25;5072259;28;20463;-79
2022/12/29 06:31:50;;;;;;;1.70;1.57;;;7.10;72.20;;;6.97;64.29;97429.69;5089722;28;20504;-78
2022/12/29 06:34:20;;;;;;;2.33;1.83;;;7.10;72.30;;;6.93;64.49;97415.88;5090217;28;20452;-79
2022/12/29 06:36:47;;;;;;;3.00;1.70;;;7.10;72.30;;;6.98;64.41;97428.69;5072574;28;20467;-80
2022/12/29 06:39:15;;;;;;;2.70;1.93;;;7.20;72.20;;;7.03;64.27;97420.81;5073288;28;20477;-76
2022/12/29 06:41:43;;;;;;;4.40;2.13;;;7.20;72.20;;;7.11;63.49;97417.09;5071545;28;20963;-79
2022/12/29 06:44:11;;;;;;;2.90;1.67;;;7.30;72.00;;;7.12;63.65;97429.50;5088616;28;20463;-76
2022/12/29 06:46:38;;;;;;;2.93;1.80;;;7.40;71.60;;;7.09;63.74;97430.72;5092324;28;20523;-78
2022/12/29 06:49:05;;;;;;;2.90;2.00;;;7.40;71.30;;;7.08;63.35;97423.69;5076061;28;20448;-78
2022/12/29 06:51:32;;;;;;;4.67;2.30;;;7.40;71.10;;;7.04;63.47;97428.66;5097189;28;20456;-79
2022/12/29 06:53:59;;;;;;;1.97;1.70;;;7.40;71.00;;;7.01;63.48;97426.38;5090592;28;20459;-76
2022/12/29 06:56:26;;;;;;;3.33;1.97;;;7.30;71.30;;;6.78;63.27;97397.25;5089081;28;20534;-80
2022/12/29 06:58:55;;;;;;;2.27;1.80;;;7.30;71.10;;;7.06;63.12;97442.72;5069411;28;20488;-80
2022/12/29 07:01:22;;;;;;;3.43;1.80;;;7.30;71.00;;;7.15;62.78;97435.28;5085060;28;20564;-75
2022/12/29 07:03:49;;;;;;;2.53;1.90;;;7.30;71.00;;;7.10;62.88;97432.38;5070226;28;20540;-81
2022/12/29 07:06:16;;;;;;;2.40;2.20;;;7.30;71.00;;;7.01;63.13;97421.00;5090714;28;20437;-81
2022/12/29 07:08:44;;;;;;;3.23;1.70;;;7.20;71.00;;;7.02;63.06;97435.28;5091419;28;20856;-78
2022/12/29 07:11:11;;;;;;;4.80;1.80;;;7.20;70.90;;;7.03;62.82;97436.94;5069381;28;20452;-81
2022/12/29 07:13:38;;;;;;;4.77;1.90;;;7.20;70.90;;;7.07;62.80;97422.91;5090743;28;20436;-80
2022/12/29 07:16:11;;;;;;;1.87;1.60;;;7.20;70.90;;;7.12;62.80;97440.25;5089152;28;20437;-79
2022/12/29 07:18:38;;;;;;;2.57;2.00;;;7.30;70.90;;;7.02;63.38;97435.28;5087182;28;20581;-82
2022/12/29 07:21:06;;;;;;;3.23;1.77;;;7.30;70.90;;;7.09;62.92;97436.94;5072453;28;20457;-79
2022/12/29 07:23:33;;;;;;;6.33;2.10;;;7.40;70.90;;;7.19;62.67;97441.88;5091180;28;20888;-81
2022/12/29 07:26:01;;;;;;;2.67;2.33;;;7.40;70.70;;;7.13;62.91;97442.72;5089195;28;20531;-81
2022/12/29 07:28:29;;;;;;;2.70;1.40;;;7.40;70.90;;;7.26;62.34;97452.63;5091308;28;20463;-80
2022/12/29 07:30:56;;;;;;;2.10;1.80;;;7.50;70.60;;;7.25;62.04;97461.72;5104160;28;20448;-80
2022/12/29 07:33:25;;;;;;;2.60;2.20;;;7.60;70.50;;;7.37;61.95;97462.75;5067239;28;21151;-81
2022/12/29 07:35:52;;;;;;;4.50;2.60;;;7.70;70.20;;;7.59;61.57;97467.88;5087699;28;21156;-80
2022/12/29 07:38:19;;;;;;;6.20;2.20;;;7.80;70.00;;;7.69;60.80;97456.69;5091766;28;20511;-81
2022/12/29 07:40:46;;;;;;;3.67;2.07;;;7.90;69.50;;;7.73;60.60;97457.09;5091287;28;20483;-83
2022/12/29 07:43:14;;;;;;;3.43;2.03;;;8.10;69.30;;;7.67;60.83;97458.78;5070766;28;20476;-80
2022/12/29 07:45:41;;;;;;;7.20;2.10;;;8.00;69.10;;;7.61;60.91;97467.69;5069137;28;20479;-79
2022/12/29 07:48:09;;;;;;;2.37;2.10;;;7.90;69.30;;;7.65;60.77;97460.84;5080462;28;20442;-81
2022/12/29 07:50:37;;;;;;;4.60;1.77;;;7.90;69.10;;;7.72;60.35;97461.66;5066594;28;20482;-81
2022/12/29 07:53:05;;;;;;;2.10;1.87;;;8.00;69.10;;;7.86;60.38;97467.84;5090826;28;20937;-81
2022/12/29 07:55:32;;;;;;;4.47;1.87;;;8.10;69.10;;;7.77;59.80;97451.09;5089931;28;20443;-79
2022/12/29 07:57:59;;;;;;;2.50;1.80;;;8.10;68.90;;;7.97;59.76;97466.34;5091164;28;20511;-81
2022/12/29 08:00:26;;;;;;;3.97;2.30;;;8.20;68.70;;;7.97;60.24;97470.91;5073311;28;20452;-81
2022/12/29 08:02:54;;;;;;;4.97;2.07;;;8.20;68.80;;;8.10;59.80;97461.97;5069392;28;20503;-81
2022/12/29 08:05:21;;;;;;;2.80;2.37;;;8.30;68.80;;;8.17;59.40;97460.06;5088565;28;20539;-82
2022/12/29 08:07:50;;;;;;;1.93;1.80;;;8.30;68.70;;;8.00;59.19;97403.22;5093443;28;20521;-79
2022/12/29 08:10:18;;;;;;;3.03;2.13;;;8.40;68.60;;;8.19;59.58;97445.34;5092529;28;20972;-82
2022/12/29 08:12:45;;;;;;;2.50;2.07;;;8.40;68.80;;;8.17;59.52;97452.81;5092998;28;20452;-80
2022/12/29 08:15:13;;;;;;;5.43;2.90;;;8.50;68.50;;;8.11;59.89;97448.28;5067368;28;20849;-80
2022/12/29 08:17:40;;;;;;;2.70;1.90;;;8.40;68.60;;;8.19;60.03;97450.72;5093002;28;21023;-80
2022/12/29 08:20:09;;;;;;;2.40;1.73;;;8.40;68.70;;;8.49;59.56;97460.94;5071693;28;20936;-81
2022/12/29 08:22:36;;;;;;;5.47;2.37;;;8.60;68.70;;;8.40;59.01;97456.03;5092697;28;20519;-80
2022/12/29 08:25:05;;;;;;;2.03;1.87;;;8.70;68.50;;;8.49;59.30;97452.88;5091494;28;20791;-82
2022/12/29 08:27:33;;;;;;;3.30;1.80;;;8.70;68.30;;;8.56;59.16;97462.78;5093846;28;20927;-78
2022/12/29 08:30:00;;;;;;;3.47;2.03;;;8.80;68.20;;;8.47;59.12;97452.25;5094932;28;20500;-81
2022/12/29 08:32:28;;;;;;;4.73;1.93;;;8.90;68.10;;;8.51;59.17;97452.69;5088237;28;20460;-80
2022/12/29 08:34:55;;;;;;;2.30;1.90;;;8.90;68.10;;;8.77;58.58;97456.25;5075216;28;20553;-78
2022/12/29 08:37:23;;;;;;;1.87;1.57;;;9.00;67.90;;;8.63;58.94;97458.19;5093966;28;20445;-80
2022/12/29 08:39:50;;;;;;;4.03;1.43;;;9.00;67.90;;;8.88;58.84;97463.63;5075647;28;20476;-81
2022/12/29 08:42:18;;;;;;;2.00;1.33;;;9.10;67.80;;;8.93;58.63;97471.06;5071704;28;20528;-82
2022/12/29 08:44:45;;;;;;;3.67;2.00;;;9.20;67.90;;;9.00;58.02;97471.00;5086865;28;20479;-79
2022/12/29 08:47:12;;;;;;;3.80;1.80;;;9.20;67.70;;;9.00;57.95;97466.44;5091630;28;20484;-81
2022/12/29 08:49:40;;;;;;;3.73;1.80;;;9.30;67.60;;;9.03;58.05;97476.81;5093907;28;20444;-81
2022/12/29 08:52:08;;;;;;;4.03;1.70;;;9.30;67.40;;;9.09;58.52;97469.69;5093863;28;20956;-80
2022/12/29 08:54:35;;;;;;;1.93;1.83;;;9.40;67.40;;;9.21;57.54;97472.50;5092155;28;20449;-80
2022/12/29 08:57:02;;;;;;;3.77;1.80;;;9.50;67.40;;;9.29;57.19;97469.53;5074820;28;21047;-79
2022/12/29 08:59:31;;;;;;;3.80;2.30;;;9.50;67.10;;;9.26;57.46;97459.19;5093921;28;20573;-81
2022/12/29 09:01:58;;;;;;;2.73;2.10;;;9.60;67.10;;;9.35;57.77;97457.03;5092425;28;20506;-78
2022/12/29 09:04:27;;;;;;;1.80;1.60;;;9.70;67.10;;;9.33;57.84;97462.66;5073067;28;20479;-78
2022/12/29 09:06:54;;;;;;;3.47;2.40;;;9.70;66.90;;;9.25;58.39;97456.69;5091266;28;20458;-80
2022/12/29 09:09:22;;;;;;;4.40;2.60;;;9.60;67.10;;;9.43;57.64;97464.03;5092414;28;20528;-81
2022/12/29 09:11:49;;;;;;;2.73;2.23;;;9.70;67.10;;;9.44;57.89;97462.97;5074161;28;20457;-82
2022/12/29 09:14:16;;;;;;;2.30;1.60;;;9.80;67.50;;;8.98;58.39;97387.69;5093028;28;20451;-80
2022/12/29 09:19:29;;;;;;;2.43;1.80;;;9.80;67.50;;;9.57;58.28;97460.16;5077878;28;20434;-80
2022/12/29 09:21:56;;;;;;;2.20;2.00;;;9.80;67.40;;;9.59;58.27;97462.63;5093909;28;20475;-80
2022/12/29 09:24:24;;;;;;;1.97;1.80;;;9.90;67.40;;;9.79;56.92;97473.22;5092498;28;20519;-80
2022/12/29 09:26:51;;;;;;;2.23;1.93;;;10.00;66.20;;;9.94;56.99;97477.44;5092646;28;20448;-77
2022/12/29 09:29:18;;;;;;;2.47;1.80;;;10.20;66.20;;;9.94;57.36;97474.72;5067333;28;20467;-80
2022/12/29 09:31:47;;;;;;;2.53;1.70;;;10.30;65.90;;;10.06;56.48;97473.75;5093177;28;20494;-79
2022/12/29 09:34:14;;;;;;;3.47;2.10;;;10.40;65.60;;;10.14;56.60;97485.28;5091482;28;20450;-80
2022/12/29 09:36:41;;;;;;;2.47;2.27;;;10.40;65.70;;;10.32;55.96;97470.94;5092542;28;20457;-81
2022/12/29 09:39:09;;;;;;;2.67;1.97;;;10.60;65.60;;;10.45;55.69;97476.22;5104660;28;20461;-81
2022/12/29 09:41:40;;;;;;;7.00;2.40;;;10.70;65.50;;;10.77;55.62;97484.09;5075582;28;20447;-76
2022/12/29 09:44:17;;;;;;;2.43;1.83;;;10.80;65.50;;;10.71;55.61;97481.47;5088854;28;20495;-77
2022/12/29 09:46:50;;;;;;;2.90;1.50;;;10.90;65.30;;;10.63;55.81;97466.41;5079067;28;20853;-81
2022/12/29 09:49:28;;;;;;;2.10;1.90;;;10.90;65.20;;;10.60;56.27;97462.28;5092781;28;20457;-79
2022/12/29 09:52:01;;;;;;;3.73;2.07;;;10.80;65.20;;;10.78;55.61;97463.31;5107831;28;20442;-75
2022/12/29 09:54:49;;;;;;;3.03;2.03;;;10.90;65.20;;;10.90;55.22;97464.13;5097559;28;20460;-77
2022/12/29 09:57:23;;;;;;;2.17;1.97;;;11.10;65.10;;;10.76;55.44;97460.00;5113846;28;20473;-75
2022/12/29 09:59:55;;;;;;;1.90;1.70;;;11.00;65.10;;;10.86;55.63;97460.25;5086727;28;20489;-79
2022/12/29 10:02:36;;;;;;;3.20;1.97;;;11.10;65.00;;;10.67;55.32;97405.47;5100079;28;20464;-79
2022/12/29 10:05:03;;;;;;;5.03;2.00;;;11.10;64.90;;;10.95;55.97;97457.25;5088486;28;20457;-78
2022/12/29 10:07:40;;;;;;;4.47;2.30;;;11.10;65.20;;;11.19;55.51;97468.91;5083160;28;20439;-80
2022/12/29 10:10:25;;;;;;;2.20;2.00;;;11.30;65.30;;;11.20;55.26;97454.34;5100974;28;20470;-78
2022/12/29 10:13:11;;;;;;;5.80;4.40;;;11.30;65.10;;;11.19;55.53;97452.69;5081293;28;20481;-82
2022/12/29 10:15:49;;;;;;;3.57;2.20;;;11.40;65.20;;;11.17;55.80;97444.00;5098004;28;20444;-81
2022/12/29 10:18:50;;;;;;;4.83;2.43;;;11.40;65.20;;;10.67;56.51;97432.47;5071201;28;20842;-81
2022/12/29 10:21:30;;;;;;;3.70;2.47;;;11.30;65.50;;;10.84;57.22;97445.31;5090255;28;20835;-80
2022/12/29 10:23:57;;;;;;;2.70;2.13;;;11.10;65.90;;;10.91;57.12;97443.34;5092828;28;21079;-81
2022/12/29 10:26:30;;;;;;;3.53;1.90;;;11.10;65.90;;;10.83;56.97;97449.91;5075072;28;20511;-80
2022/12/29 10:29:03;;;;;;;6.03;2.30;;;11.00;66.20;;;10.68;57.58;97447.63;5077111;28;20788;-81
2022/12/29 10:31:41;;;;;;;3.93;2.40;;;11.00;66.60;;;10.86;57.90;97443.25;5095156;28;20916;-81
2022/12/29 10:34:20;;;;;;;1.97;1.60;;;11.00;66.60;;;10.86;57.64;97430.53;5073038;28;20451;-79
2022/12/29 10:36:50;;;;;;;3.47;2.50;;;11.10;66.60;;;11.08;56.97;97434.56;5089739;28;20445;-82
2022/12/29 10:39:24;;;;;;;3.80;2.80;;;11.10;66.50;;;10.99;57.43;97423.28;5091380;28;20455;-82
2022/12/29 10:41:58;;;;;;;6.37;2.70;;;11.20;66.50;;;11.16;56.55;97426.13;5093733;28;20457;-80
2022/12/29 10:44:30;;;;;;;3.60;2.03;;;11.30;66.30;;;11.32;56.81;97420.03;5073707;28;20864;-79
2022/12/29 10:47:01;;;;;;;3.40;2.53;;;11.40;66.20;;;11.58;56.26;97422.47;5092798;28;20503;-81
2022/12/29 10:49:30;;;;;;;3.33;3.03;;;11.60;66.20;;;11.51;56.20;97417.19;5090339;28;20779;-78
2022/12/29 10:52:01;;;;;;;5.43;2.70;;;11.70;66.00;;;11.58;56.07;97404.34;5092407;28;20475;-81
2022/12/29 10:54:33;;;;;;;4.67;2.97;;;11.70;66.40;;;11.52;56.31;97408.00;5092698;28;20454;-82
2022/12/29 10:57:06;;;;;;;7.83;2.50;;;11.70;66.00;;;11.50;56.28;97399.31;5072958;28;20449;-79
2022/12/29 10:59:37;;;;;;;3.20;2.20;;;11.70;66.10;;;11.70;56.07;97408.94;5092369;28;20926;-81
2022/12/29 11:02:24;;;;;;;2.50;2.30;;;11.80;66.00;;;11.79;56.19;97407.50;5092040;28;20495;-81
2022/12/29 11:05:02;;;;;;;5.80;3.20;;;11.80;66.10;;;12.14;54.89;97403.09;5090978;28;20984;-81
2022/12/29 11:07:30;;;;;;;6.70;2.67;;;12.10;65.80;;;11.87;55.44;97407.13;5089659;28;20455;-81
2022/12/29 11:10:20;;;;;;;6.43;2.53;;;12.10;65.50;;;11.89;55.44;97396.88;5091368;28;20461;-80
2022/12/29 11:12:59;;;;;;;2.57;2.17;;;12.10;65.60;;;11.85;55.86;97400.34;5089678;28;20824;-79
2022/12/29 11:15:27;;;;;;;4.70;2.50;;;12.10;65.60;;;11.97;55.66;97403.00;5085675;28;20443;-78
2022/12/29 11:17:59;;;;;;;3.13;2.37;;;12.10;65.60;;;12.14;55.12;97393.09;5092684;28;20442;-77
2022/12/29 11:20:35;;;;;;;3.13;2.63;;;12.20;65.50;;;12.13;55.05;97391.44;5078781;28;20450;-80
2022/12/29 11:23:04;;;;;;;4.57;2.47;;;12.30;65.40;;;12.15;55.44;97405.56;5072771;28;20468;-78
2022/12/29 11:25:32;;;;;;;3.60;2.00;;;12.30;65.40;;;12.08;55.18;97399.47;5089507;28;20437;-76